sensor_id;sensor_type;location;lat;lon;timestamp;temperature;humidity
5276;DHT22;2661;50.786;12.728;2022-08-03T00:00:57;16.80;1.00
5276;DHT22;2661;50.786;12.728;2022-08-03T00:03:26;16.80;1.00
5276;DHT22;2661;50.786;12.728;2022-08-03T00:05:54;16.90;1.00
5276;DHT22;2661;50.786;12.728;2022-08-03T00:08:30;16.90;1.00
5276;DHT22;2661;50.786;12.728;2022-08-03T00:11:05;16.80;1.00
5276;DHT22;2661;50.786;12.728;2022-08-03T00:13:34;16.80;1.00
5276;DHT22;2661;50.786;12.728;2022-08-03T00:16:09;16.70;1.00
5276;DHT22;2661;50.786;12.728;2022-08-03T00:18:40;16.70;1.00
5276;DHT22;2661;50.786;12.728;2022-08-03T00:21:13;16.60;1.00
5276;DHT22;2661;50.786;12.728;2022-08-03T00:23:45;16.50;1.00
5276;DHT22;2661;50.786;12.728;2022-08-03T00:26:18;16.60;1.00
5276;DHT22;2661;50.786;12.728;2022-08-03T00:28:52;16.60;1.00
5276;DHT22;2661;50.786;12.728;2022-08-03T00:31:25;16.50;1.00
5276;DHT22;2661;50.786;12.728;2022-08-03T00:34:17;16.40;1.00
5276;DHT22;2661;50.786;12.728;2022-08-03T00:37:14;16.30;1.00
5276;DHT22;2661;50.786;12.728;2022-08-03T00:39:47;16.30;1.00
5276;DHT22;2661;50.786;12.728;2022-08-03T00:42:18;16.30;1.40
5276;DHT22;2661;50.786;12.728;2022-08-03T00:44:52;16.20;3.10
5276;DHT22;2661;50.786;12.728;2022-08-03T00:47:20;16.20;1.00
5276;DHT22;2661;50.786;12.728;2022-08-03T00:49:50;16.20;2.10
5276;DHT22;2661;50.786;12.728;2022-08-03T00:52:21;16.20;21.50
5276;DHT22;2661;50.786;12.728;2022-08-03T00:54:52;16.10;15.00
5276;DHT22;2661;50.786;12.728;2022-08-03T00:57:20;16.10;26.00
5276;DHT22;2661;50.786;12.728;2022-08-03T00:59:48;16.10;15.00
5276;DHT22;2661;50.786;12.728;2022-08-03T01:02:17;16.10;16.70
5276;DHT22;2661;50.786;12.728;2022-08-03T01:04:44;16.10;21.90
5276;DHT22;2661;50.786;12.728;2022-08-03T01:07:20;16.30;24.70
5276;DHT22;2661;50.786;12.728;2022-08-03T01:09:54;16.20;15.50
5276;DHT22;2661;50.786;12.728;2022-08-03T01:12:27;16.10;1.00
5276;DHT22;2661;50.786;12.728;2022-08-03T01:17:48;16.20;1.00
5276;DHT22;2661;50.786;12.728;2022-08-03T01:20:17;16.10;1.00
5276;DHT22;2661;50.786;12.728;2022-08-03T01:25:31;16.10;1.00
5276;DHT22;2661;50.786;12.728;2022-08-03T01:30:32;16.10;1.00
5276;DHT22;2661;50.786;12.728;2022-08-03T01:33:05;16.00;1.00
5276;DHT22;2661;50.786;12.728;2022-08-03T01:35:40;16.00;1.00
5276;DHT22;2661;50.786;12.728;2022-08-03T01:38:09;15.90;1.00
5276;DHT22;2661;50.786;12.728;2022-08-03T01:40:37;15.90;1.00
5276;DHT22;2661;50.786;12.728;2022-08-03T01:43:05;15.80;6.60
5276;DHT22;2661;50.786;12.728;2022-08-03T01:45:33;15.90;2.70
5276;DHT22;2661;50.786;12.728;2022-08-03T01:48:01;15.90;1.00
5276;DHT22;2661;50.786;12.728;2022-08-03T01:50:28;15.90;1.00
5276;DHT22;2661;50.786;12.728;2022-08-03T01:52:56;15.90;1.00
5276;DHT22;2661;50.786;12.728;2022-08-03T01:55:24;15.90;1.00
5276;DHT22;2661;50.786;12.728;2022-08-03T01:57:53;15.70;1.00
5276;DHT22;2661;50.786;12.728;2022-08-03T02:00:32;15.80;1.00
5276;DHT22;2661;50.786;12.728;2022-08-03T02:03:00;15.70;1.00
5276;DHT22;2661;50.786;12.728;2022-08-03T02:05:28;15.80;1.00
5276;DHT22;2661;50.786;12.728;2022-08-03T02:07:56;15.70;1.00
5276;DHT22;2661;50.786;12.728;2022-08-03T02:10:23;15.70;1.00
5276;DHT22;2661;50.786;12.728;2022-08-03T02:13:02;15.70;1.00
5276;DHT22;2661;50.786;12.728;2022-08-03T02:15:29;15.70;1.00
5276;DHT22;2661;50.786;12.728;2022-08-03T02:17:57;15.70;1.00
5276;DHT22;2661;50.786;12.728;2022-08-03T02:20:25;15.70;1.00
5276;DHT22;2661;50.786;12.728;2022-08-03T02:22:52;15.70;1.00
5276;DHT22;2661;50.786;12.728;2022-08-03T02:25:19;15.70;1.00
5276;DHT22;2661;50.786;12.728;2022-08-03T02:27:56;15.60;1.00
5276;DHT22;2661;50.786;12.728;2022-08-03T02:30:28;15.60;1.00
5276;DHT22;2661;50.786;12.728;2022-08-03T02:32:56;15.60;1.00
5276;DHT22;2661;50.786;12.728;2022-08-03T02:35:25;15.60;1.00
5276;DHT22;2661;50.786;12.728;2022-08-03T02:37:53;15.70;1.00
5276;DHT22;2661;50.786;12.728;2022-08-03T02:40:22;15.70;1.00
5276;DHT22;2661;50.786;12.728;2022-08-03T02:42:50;15.60;1.00
5276;DHT22;2661;50.786;12.728;2022-08-03T02:45:18;15.60;1.00
5276;DHT22;2661;50.786;12.728;2022-08-03T02:47:45;15.60;1.00
5276;DHT22;2661;50.786;12.728;2022-08-03T02:50:20;15.60;1.00
5276;DHT22;2661;50.786;12.728;2022-08-03T02:52:48;15.60;1.00
5276;DHT22;2661;50.786;12.728;2022-08-03T02:55:15;15.50;1.00
5276;DHT22;2661;50.786;12.728;2022-08-03T02:57:43;15.50;1.00
5276;DHT22;2661;50.786;12.728;2022-08-03T03:00:10;15.50;1.00
5276;DHT22;2661;50.786;12.728;2022-08-03T03:02:38;15.50;1.00
5276;DHT22;2661;50.786;12.728;2022-08-03T03:05:09;15.40;1.00
5276;DHT22;2661;50.786;12.728;2022-08-03T03:07:57;15.30;1.00
5276;DHT22;2661;50.786;12.728;2022-08-03T03:10:24;15.20;1.00
5276;DHT22;2661;50.786;12.728;2022-08-03T03:12:54;15.20;1.00
5276;DHT22;2661;50.786;12.728;2022-08-03T03:15:22;15.30;1.00
5276;DHT22;2661;50.786;12.728;2022-08-03T03:17:49;15.20;1.00
5276;DHT22;2661;50.786;12.728;2022-08-03T03:20:17;15.20;1.00
5276;DHT22;2661;50.786;12.728;2022-08-03T03:23:04;15.20;1.00
5276;DHT22;2661;50.786;12.728;2022-08-03T03:25:31;15.20;1.00
5276;DHT22;2661;50.786;12.728;2022-08-03T03:27:58;15.20;1.00
5276;DHT22;2661;50.786;12.728;2022-08-03T03:30:25;15.10;1.00
5276;DHT22;2661;50.786;12.728;2022-08-03T03:32:52;15.10;1.00
5276;DHT22;2661;50.786;12.728;2022-08-03T03:35:19;15.00;1.00
5276;DHT22;2661;50.786;12.728;2022-08-03T03:37:46;15.00;1.00
5276;DHT22;2661;50.786;12.728;2022-08-03T03:40:13;15.00;1.00
5276;DHT22;2661;50.786;12.728;2022-08-03T03:42:40;15.10;1.00
5276;DHT22;2661;50.786;12.728;2022-08-03T03:45:07;15.10;1.00
5276;DHT22;2661;50.786;12.728;2022-08-03T03:47:34;15.10;1.00
5276;DHT22;2661;50.786;12.728;2022-08-03T03:50:02;15.10;1.00
5276;DHT22;2661;50.786;12.728;2022-08-03T03:52:30;15.10;1.00
5276;DHT22;2661;50.786;12.728;2022-08-03T03:54:56;15.10;1.00
5276;DHT22;2661;50.786;12.728;2022-08-03T03:57:27;15.20;1.00
5276;DHT22;2661;50.786;12.728;2022-08-03T03:59:53;15.20;1.00
5276;DHT22;2661;50.786;12.728;2022-08-03T04:02:20;15.10;1.00
5276;DHT22;2661;50.786;12.728;2022-08-03T04:04:47;15.20;1.00
5276;DHT22;2661;50.786;12.728;2022-08-03T04:07:36;15.30;1.00
5276;DHT22;2661;50.786;12.728;2022-08-03T04:10:24;15.30;1.00
5276;DHT22;2661;50.786;12.728;2022-08-03T04:13:12;15.20;1.00
5276;DHT22;2661;50.786;12.728;2022-08-03T04:15:40;15.30;1.00
5276;DHT22;2661;50.786;12.728;2022-08-03T04:18:08;15.30;1.00
5276;DHT22;2661;50.786;12.728;2022-08-03T04:20:37;15.30;1.00
5276;DHT22;2661;50.786;12.728;2022-08-03T04:23:04;15.20;1.00
5276;DHT22;2661;50.786;12.728;2022-08-03T04:25:41;15.20;1.00
5276;DHT22;2661;50.786;12.728;2022-08-03T04:28:08;15.30;1.00
5276;DHT22;2661;50.786;12.728;2022-08-03T04:30:55;15.30;1.00
5276;DHT22;2661;50.786;12.728;2022-08-03T04:33:22;15.20;1.00
5276;DHT22;2661;50.786;12.728;2022-08-03T04:35:54;15.20;1.00
5276;DHT22;2661;50.786;12.728;2022-08-03T04:38:29;15.20;1.00
5276;DHT22;2661;50.786;12.728;2022-08-03T04:40:57;15.20;1.00
5276;DHT22;2661;50.786;12.728;2022-08-03T04:43:24;15.30;1.00
5276;DHT22;2661;50.786;12.728;2022-08-03T04:45:52;15.20;1.00
5276;DHT22;2661;50.786;12.728;2022-08-03T04:48:20;15.20;1.00
5276;DHT22;2661;50.786;12.728;2022-08-03T04:50:47;15.30;1.00
5276;DHT22;2661;50.786;12.728;2022-08-03T04:53:14;15.30;1.00
5276;DHT22;2661;50.786;12.728;2022-08-03T04:55:41;15.30;1.00
5276;DHT22;2661;50.786;12.728;2022-08-03T04:58:08;15.40;17.20
5276;DHT22;2661;50.786;12.728;2022-08-03T05:00:35;15.40;33.20
5276;DHT22;2661;50.786;12.728;2022-08-03T05:03:01;15.50;54.50
5276;DHT22;2661;50.786;12.728;2022-08-03T05:05:28;15.60;68.90
5276;DHT22;2661;50.786;12.728;2022-08-03T05:08:15;15.60;91.00
5276;DHT22;2661;50.786;12.728;2022-08-03T05:10:46;15.70;99.90
5276;DHT22;2661;50.786;12.728;2022-08-03T05:13:12;15.80;99.90
5276;DHT22;2661;50.786;12.728;2022-08-03T05:15:40;15.90;99.90
5276;DHT22;2661;50.786;12.728;2022-08-03T05:18:08;16.00;99.90
5276;DHT22;2661;50.786;12.728;2022-08-03T05:20:39;16.10;99.90
5276;DHT22;2661;50.786;12.728;2022-08-03T05:23:06;16.20;99.90
5276;DHT22;2661;50.786;12.728;2022-08-03T05:25:33;16.20;99.90
5276;DHT22;2661;50.786;12.728;2022-08-03T05:28:00;16.30;99.90
5276;DHT22;2661;50.786;12.728;2022-08-03T05:30:26;16.40;99.90
5276;DHT22;2661;50.786;12.728;2022-08-03T05:33:00;16.50;99.90
5276;DHT22;2661;50.786;12.728;2022-08-03T05:35:27;16.50;99.90
5276;DHT22;2661;50.786;12.728;2022-08-03T05:38:15;16.60;99.90
5276;DHT22;2661;50.786;12.728;2022-08-03T05:40:55;16.70;86.60
5276;DHT22;2661;50.786;12.728;2022-08-03T05:43:23;16.90;11.40
5276;DHT22;2661;50.786;12.728;2022-08-03T05:45:49;17.00;1.00
5276;DHT22;2661;50.786;12.728;2022-08-03T05:48:36;17.10;1.00
5276;DHT22;2661;50.786;12.728;2022-08-03T05:51:03;17.20;1.00
5276;DHT22;2661;50.786;12.728;2022-08-03T05:53:32;17.40;1.00
5276;DHT22;2661;50.786;12.728;2022-08-03T05:55:59;17.60;1.00
5276;DHT22;2661;50.786;12.728;2022-08-03T05:58:40;17.80;1.00
5276;DHT22;2661;50.786;12.728;2022-08-03T06:01:07;17.90;1.00
5276;DHT22;2661;50.786;12.728;2022-08-03T06:03:34;18.10;1.00
5276;DHT22;2661;50.786;12.728;2022-08-03T06:06:01;18.20;1.00
5276;DHT22;2661;50.786;12.728;2022-08-03T06:08:28;18.40;1.00
5276;DHT22;2661;50.786;12.728;2022-08-03T06:10:54;18.50;1.00
5276;DHT22;2661;50.786;12.728;2022-08-03T06:13:21;18.60;1.00
5276;DHT22;2661;50.786;12.728;2022-08-03T06:15:48;18.70;1.00
5276;DHT22;2661;50.786;12.728;2022-08-03T06:18:14;18.80;1.00
5276;DHT22;2661;50.786;12.728;2022-08-03T06:20:41;18.90;1.00
5276;DHT22;2661;50.786;12.728;2022-08-03T06:23:08;19.00;1.00
5276;DHT22;2661;50.786;12.728;2022-08-03T06:25:41;19.00;1.00
5276;DHT22;2661;50.786;12.728;2022-08-03T06:28:08;19.00;1.00
5276;DHT22;2661;50.786;12.728;2022-08-03T06:30:54;19.10;1.00
5276;DHT22;2661;50.786;12.728;2022-08-03T06:33:23;19.20;1.00
5276;DHT22;2661;50.786;12.728;2022-08-03T06:36:11;19.20;1.00
5276;DHT22;2661;50.786;12.728;2022-08-03T06:38:38;19.30;1.00
5276;DHT22;2661;50.786;12.728;2022-08-03T06:41:05;19.40;1.00
5276;DHT22;2661;50.786;12.728;2022-08-03T06:43:31;19.50;1.00
5276;DHT22;2661;50.786;12.728;2022-08-03T06:46:03;19.50;1.00
5276;DHT22;2661;50.786;12.728;2022-08-03T06:48:31;19.60;1.00
5276;DHT22;2661;50.786;12.728;2022-08-03T06:50:57;19.60;1.00
5276;DHT22;2661;50.786;12.728;2022-08-03T06:53:24;19.60;1.00
5276;DHT22;2661;50.786;12.728;2022-08-03T06:55:51;19.70;1.00
5276;DHT22;2661;50.786;12.728;2022-08-03T06:58:21;19.80;1.00
5276;DHT22;2661;50.786;12.728;2022-08-03T07:00:47;19.80;1.00
5276;DHT22;2661;50.786;12.728;2022-08-03T07:03:14;20.00;1.00
5276;DHT22;2661;50.786;12.728;2022-08-03T07:05:42;20.00;1.00
5276;DHT22;2661;50.786;12.728;2022-08-03T07:08:09;20.20;1.00
5276;DHT22;2661;50.786;12.728;2022-08-03T07:10:36;20.30;1.00
5276;DHT22;2661;50.786;12.728;2022-08-03T07:13:03;20.40;1.00
5276;DHT22;2661;50.786;12.728;2022-08-03T07:15:29;20.40;1.00
5276;DHT22;2661;50.786;12.728;2022-08-03T07:18:16;20.50;1.00
5276;DHT22;2661;50.786;12.728;2022-08-03T07:20:54;20.60;1.00
5276;DHT22;2661;50.786;12.728;2022-08-03T07:23:21;20.70;1.00
5276;DHT22;2661;50.786;12.728;2022-08-03T07:25:47;20.70;1.00
5276;DHT22;2661;50.786;12.728;2022-08-03T07:28:14;20.80;1.00
5276;DHT22;2661;50.786;12.728;2022-08-03T07:30:41;20.90;1.00
5276;DHT22;2661;50.786;12.728;2022-08-03T07:33:08;21.00;1.00
5276;DHT22;2661;50.786;12.728;2022-08-03T07:35:34;21.10;1.00
5276;DHT22;2661;50.786;12.728;2022-08-03T07:38:02;21.10;1.00
5276;DHT22;2661;50.786;12.728;2022-08-03T07:40:28;21.20;1.00
5276;DHT22;2661;50.786;12.728;2022-08-03T07:42:57;21.20;1.00
5276;DHT22;2661;50.786;12.728;2022-08-03T07:45:24;21.30;1.00
5276;DHT22;2661;50.786;12.728;2022-08-03T07:47:52;21.50;1.00
5276;DHT22;2661;50.786;12.728;2022-08-03T07:50:20;21.60;1.00
5276;DHT22;2661;50.786;12.728;2022-08-03T07:52:47;21.70;1.00
5276;DHT22;2661;50.786;12.728;2022-08-03T07:55:15;21.70;1.00
5276;DHT22;2661;50.786;12.728;2022-08-03T07:57:42;21.80;1.00
5276;DHT22;2661;50.786;12.728;2022-08-03T08:00:16;21.90;1.00
5276;DHT22;2661;50.786;12.728;2022-08-03T08:02:43;22.00;1.00
5276;DHT22;2661;50.786;12.728;2022-08-03T08:05:10;22.20;1.00
5276;DHT22;2661;50.786;12.728;2022-08-03T08:07:38;22.30;1.00
5276;DHT22;2661;50.786;12.728;2022-08-03T08:10:05;22.30;1.00
5276;DHT22;2661;50.786;12.728;2022-08-03T08:12:32;22.30;1.00
5276;DHT22;2661;50.786;12.728;2022-08-03T08:14:59;22.30;1.00
5276;DHT22;2661;50.786;12.728;2022-08-03T08:17:25;22.20;1.00
5276;DHT22;2661;50.786;12.728;2022-08-03T08:19:52;22.30;1.00
5276;DHT22;2661;50.786;12.728;2022-08-03T08:22:19;22.30;1.00
5276;DHT22;2661;50.786;12.728;2022-08-03T08:24:56;22.30;1.00
5276;DHT22;2661;50.786;12.728;2022-08-03T08:27:23;22.40;1.00
5276;DHT22;2661;50.786;12.728;2022-08-03T08:29:50;22.50;1.00
5276;DHT22;2661;50.786;12.728;2022-08-03T08:32:20;22.50;1.00
5276;DHT22;2661;50.786;12.728;2022-08-03T08:34:47;22.60;1.00
5276;DHT22;2661;50.786;12.728;2022-08-03T08:37:14;22.60;1.00
5276;DHT22;2661;50.786;12.728;2022-08-03T08:39:40;22.60;1.00
5276;DHT22;2661;50.786;12.728;2022-08-03T08:42:08;22.70;1.00
5276;DHT22;2661;50.786;12.728;2022-08-03T08:44:35;22.70;1.00
5276;DHT22;2661;50.786;12.728;2022-08-03T08:47:02;22.70;1.00
5276;DHT22;2661;50.786;12.728;2022-08-03T08:49:29;22.70;1.00
5276;DHT22;2661;50.786;12.728;2022-08-03T08:51:58;22.70;1.00
5276;DHT22;2661;50.786;12.728;2022-08-03T08:54:26;22.80;1.00
5276;DHT22;2661;50.786;12.728;2022-08-03T08:56:55;22.90;1.00
5276;DHT22;2661;50.786;12.728;2022-08-03T08:59:23;23.10;1.00
5276;DHT22;2661;50.786;12.728;2022-08-03T09:01:50;23.20;1.00
5276;DHT22;2661;50.786;12.728;2022-08-03T09:04:22;23.30;1.00
5276;DHT22;2661;50.786;12.728;2022-08-03T09:06:48;23.30;1.00
5276;DHT22;2661;50.786;12.728;2022-08-03T09:09:36;23.40;1.00
5276;DHT22;2661;50.786;12.728;2022-08-03T09:12:23;23.50;1.00
5276;DHT22;2661;50.786;12.728;2022-08-03T09:17:44;23.60;1.00
5276;DHT22;2661;50.786;12.728;2022-08-03T09:20:16;23.60;1.00
5276;DHT22;2661;50.786;12.728;2022-08-03T09:23:02;23.50;1.00
5276;DHT22;2661;50.786;12.728;2022-08-03T09:25:56;23.60;1.00
5276;DHT22;2661;50.786;12.728;2022-08-03T09:28:25;23.70;1.00
5276;DHT22;2661;50.786;12.728;2022-08-03T09:31:19;23.90;1.00
5276;DHT22;2661;50.786;12.728;2022-08-03T09:33:46;24.10;1.00
5276;DHT22;2661;50.786;12.728;2022-08-03T09:39:00;23.90;1.00
5276;DHT22;2661;50.786;12.728;2022-08-03T09:41:28;24.00;1.00
5276;DHT22;2661;50.786;12.728;2022-08-03T09:43:55;24.00;1.00
5276;DHT22;2661;50.786;12.728;2022-08-03T09:46:22;23.90;1.00
5276;DHT22;2661;50.786;12.728;2022-08-03T09:48:49;23.80;1.00
5276;DHT22;2661;50.786;12.728;2022-08-03T09:51:15;23.80;1.00
5276;DHT22;2661;50.786;12.728;2022-08-03T09:54:05;23.90;1.00
5276;DHT22;2661;50.786;12.728;2022-08-03T09:56:44;24.10;1.00
5276;DHT22;2661;50.786;12.728;2022-08-03T09:59:12;24.20;1.00
5276;DHT22;2661;50.786;12.728;2022-08-03T10:01:39;24.20;1.00
5276;DHT22;2661;50.786;12.728;2022-08-03T10:04:14;24.20;1.00
5276;DHT22;2661;50.786;12.728;2022-08-03T10:06:49;24.30;1.00
5276;DHT22;2661;50.786;12.728;2022-08-03T10:09:26;24.30;1.00
5276;DHT22;2661;50.786;12.728;2022-08-03T10:11:53;24.50;1.00
5276;DHT22;2661;50.786;12.728;2022-08-03T10:14:20;24.70;1.00
5276;DHT22;2661;50.786;12.728;2022-08-03T10:16:48;24.70;1.00
5276;DHT22;2661;50.786;12.728;2022-08-03T10:19:15;24.70;1.00
5276;DHT22;2661;50.786;12.728;2022-08-03T10:21:45;24.60;1.00
5276;DHT22;2661;50.786;12.728;2022-08-03T10:24:13;24.50;1.00
5276;DHT22;2661;50.786;12.728;2022-08-03T10:26:41;24.40;1.00
5276;DHT22;2661;50.786;12.728;2022-08-03T10:29:21;24.40;1.00
5276;DHT22;2661;50.786;12.728;2022-08-03T10:31:50;24.40;1.00
5276;DHT22;2661;50.786;12.728;2022-08-03T10:34:26;24.40;1.00
5276;DHT22;2661;50.786;12.728;2022-08-03T10:36:55;24.50;1.00
5276;DHT22;2661;50.786;12.728;2022-08-03T10:39:24;24.60;1.00
5276;DHT22;2661;50.786;12.728;2022-08-03T10:41:52;24.70;1.00
5276;DHT22;2661;50.786;12.728;2022-08-03T10:44:22;24.90;1.00
5276;DHT22;2661;50.786;12.728;2022-08-03T10:46:49;25.00;1.00
5276;DHT22;2661;50.786;12.728;2022-08-03T10:49:17;25.10;1.00
5276;DHT22;2661;50.786;12.728;2022-08-03T10:52:00;25.20;1.00
5276;DHT22;2661;50.786;12.728;2022-08-03T10:54:38;25.20;1.00
5276;DHT22;2661;50.786;12.728;2022-08-03T11:00:18;25.40;1.00
5276;DHT22;2661;50.786;12.728;2022-08-03T11:03:01;25.30;1.00
5276;DHT22;2661;50.786;12.728;2022-08-03T11:05:32;25.30;1.00
5276;DHT22;2661;50.786;12.728;2022-08-03T11:10:46;25.30;1.00
5276;DHT22;2661;50.786;12.728;2022-08-03T11:13:17;25.30;1.00
5276;DHT22;2661;50.786;12.728;2022-08-03T11:15:45;25.50;1.00
5276;DHT22;2661;50.786;12.728;2022-08-03T11:18:12;25.70;1.00
5276;DHT22;2661;50.786;12.728;2022-08-03T11:20:46;25.60;1.00
5276;DHT22;2661;50.786;12.728;2022-08-03T11:23:13;25.60;1.00
5276;DHT22;2661;50.786;12.728;2022-08-03T11:28:26;26.00;1.00
5276;DHT22;2661;50.786;12.728;2022-08-03T11:30:54;26.00;1.00
5276;DHT22;2661;50.786;12.728;2022-08-03T11:33:30;26.10;1.00
5276;DHT22;2661;50.786;12.728;2022-08-03T11:35:58;26.10;1.00
5276;DHT22;2661;50.786;12.728;2022-08-03T11:38:25;26.00;1.00
5276;DHT22;2661;50.786;12.728;2022-08-03T11:40:52;25.90;1.00
5276;DHT22;2661;50.786;12.728;2022-08-03T11:46:00;25.90;1.00
5276;DHT22;2661;50.786;12.728;2022-08-03T11:51:00;25.80;1.00
5276;DHT22;2661;50.786;12.728;2022-08-03T11:53:27;25.90;1.00
5276;DHT22;2661;50.786;12.728;2022-08-03T11:55:56;25.90;1.00
5276;DHT22;2661;50.786;12.728;2022-08-03T11:58:23;25.90;1.00
5276;DHT22;2661;50.786;12.728;2022-08-03T12:01:10;25.80;1.00
5276;DHT22;2661;50.786;12.728;2022-08-03T12:03:38;25.70;1.00
5276;DHT22;2661;50.786;12.728;2022-08-03T12:06:07;25.60;1.00
5276;DHT22;2661;50.786;12.728;2022-08-03T12:08:34;25.80;1.00
5276;DHT22;2661;50.786;12.728;2022-08-03T12:11:02;25.90;1.00
5276;DHT22;2661;50.786;12.728;2022-08-03T12:13:49;25.90;1.00
5276;DHT22;2661;50.786;12.728;2022-08-03T12:16:36;25.90;1.00
5276;DHT22;2661;50.786;12.728;2022-08-03T12:19:03;25.90;1.00
5276;DHT22;2661;50.786;12.728;2022-08-03T12:21:31;25.80;1.00
5276;DHT22;2661;50.786;12.728;2022-08-03T12:23:58;25.80;1.00
5276;DHT22;2661;50.786;12.728;2022-08-03T12:26:26;25.80;1.00
5276;DHT22;2661;50.786;12.728;2022-08-03T12:28:53;25.70;1.00
5276;DHT22;2661;50.786;12.728;2022-08-03T12:31:20;25.70;1.00
5276;DHT22;2661;50.786;12.728;2022-08-03T12:33:54;25.90;1.00
5276;DHT22;2661;50.786;12.728;2022-08-03T12:36:21;26.00;1.00
5276;DHT22;2661;50.786;12.728;2022-08-03T12:38:55;26.10;1.00
5276;DHT22;2661;50.786;12.728;2022-08-03T12:41:27;26.00;1.00
5276;DHT22;2661;50.786;12.728;2022-08-03T12:43:54;25.90;1.00
5276;DHT22;2661;50.786;12.728;2022-08-03T12:46:21;25.90;1.00
5276;DHT22;2661;50.786;12.728;2022-08-03T12:49:01;25.90;1.00
5276;DHT22;2661;50.786;12.728;2022-08-03T12:51:29;26.00;1.00
5276;DHT22;2661;50.786;12.728;2022-08-03T12:53:57;26.00;1.00
5276;DHT22;2661;50.786;12.728;2022-08-03T12:56:25;25.90;1.00
5276;DHT22;2661;50.786;12.728;2022-08-03T12:58:55;25.90;1.00
5276;DHT22;2661;50.786;12.728;2022-08-03T13:01:22;26.00;1.00
5276;DHT22;2661;50.786;12.728;2022-08-03T13:03:51;26.10;1.00
5276;DHT22;2661;50.786;12.728;2022-08-03T13:06:20;26.10;1.00
5276;DHT22;2661;50.786;12.728;2022-08-03T13:08:47;26.10;1.00
5276;DHT22;2661;50.786;12.728;2022-08-03T13:11:18;26.10;1.00
5276;DHT22;2661;50.786;12.728;2022-08-03T13:13:46;26.00;1.00
5276;DHT22;2661;50.786;12.728;2022-08-03T13:16:12;26.10;1.00
5276;DHT22;2661;50.786;12.728;2022-08-03T13:18:44;26.20;1.00
5276;DHT22;2661;50.786;12.728;2022-08-03T13:21:15;26.30;1.00
5276;DHT22;2661;50.786;12.728;2022-08-03T13:23:42;26.40;1.00
5276;DHT22;2661;50.786;12.728;2022-08-03T13:26:09;26.30;1.00
5276;DHT22;2661;50.786;12.728;2022-08-03T13:28:36;26.20;1.00
5276;DHT22;2661;50.786;12.728;2022-08-03T13:31:03;26.20;1.00
5276;DHT22;2661;50.786;12.728;2022-08-03T13:33:32;26.20;1.00
5276;DHT22;2661;50.786;12.728;2022-08-03T13:35:59;26.40;1.00
5276;DHT22;2661;50.786;12.728;2022-08-03T13:38:25;26.60;1.00
5276;DHT22;2661;50.786;12.728;2022-08-03T13:40:53;26.60;1.00
5276;DHT22;2661;50.786;12.728;2022-08-03T13:43:21;26.60;1.00
5276;DHT22;2661;50.786;12.728;2022-08-03T13:45:48;26.70;1.00
5276;DHT22;2661;50.786;12.728;2022-08-03T13:48:22;26.90;1.00
5276;DHT22;2661;50.786;12.728;2022-08-03T13:51:03;27.10;1.00
5276;DHT22;2661;50.786;12.728;2022-08-03T13:53:48;27.30;1.00
5276;DHT22;2661;50.786;12.728;2022-08-03T13:56:14;27.30;1.00
5276;DHT22;2661;50.786;12.728;2022-08-03T13:58:41;27.20;1.00
5276;DHT22;2661;50.786;12.728;2022-08-03T14:01:08;27.10;1.00
5276;DHT22;2661;50.786;12.728;2022-08-03T14:03:35;26.90;1.00
5276;DHT22;2661;50.786;12.728;2022-08-03T14:06:01;26.80;1.00
5276;DHT22;2661;50.786;12.728;2022-08-03T14:08:28;26.60;1.00
5276;DHT22;2661;50.786;12.728;2022-08-03T14:10:55;26.50;1.00
5276;DHT22;2661;50.786;12.728;2022-08-03T14:13:22;26.40;1.00
5276;DHT22;2661;50.786;12.728;2022-08-03T14:15:48;26.40;1.00
5276;DHT22;2661;50.786;12.728;2022-08-03T14:18:20;26.30;1.00
5276;DHT22;2661;50.786;12.728;2022-08-03T14:20:59;26.20;1.00
5276;DHT22;2661;50.786;12.728;2022-08-03T14:23:31;26.30;1.00
5276;DHT22;2661;50.786;12.728;2022-08-03T14:25:58;26.40;1.00
5276;DHT22;2661;50.786;12.728;2022-08-03T14:28:25;26.60;1.00
5276;DHT22;2661;50.786;12.728;2022-08-03T14:30:52;26.70;1.00
5276;DHT22;2661;50.786;12.728;2022-08-03T14:33:19;26.80;1.00
5276;DHT22;2661;50.786;12.728;2022-08-03T14:35:46;27.00;1.00
5276;DHT22;2661;50.786;12.728;2022-08-03T14:38:13;27.20;1.00
5276;DHT22;2661;50.786;12.728;2022-08-03T14:40:39;27.40;1.00
5276;DHT22;2661;50.786;12.728;2022-08-03T14:43:06;27.50;1.00
5276;DHT22;2661;50.786;12.728;2022-08-03T14:45:33;27.50;1.00
5276;DHT22;2661;50.786;12.728;2022-08-03T14:48:00;27.50;1.00
5276;DHT22;2661;50.786;12.728;2022-08-03T14:50:47;27.60;1.00
5276;DHT22;2661;50.786;12.728;2022-08-03T14:53:17;27.70;1.00
5276;DHT22;2661;50.786;12.728;2022-08-03T14:55:45;27.70;1.00
5276;DHT22;2661;50.786;12.728;2022-08-03T14:58:16;27.70;1.00
5276;DHT22;2661;50.786;12.728;2022-08-03T15:00:46;27.70;1.00
5276;DHT22;2661;50.786;12.728;2022-08-03T15:03:14;27.70;1.00
5276;DHT22;2661;50.786;12.728;2022-08-03T15:05:43;27.70;1.00
5276;DHT22;2661;50.786;12.728;2022-08-03T15:08:10;27.80;1.00
5276;DHT22;2661;50.786;12.728;2022-08-03T15:10:36;27.90;1.00
5276;DHT22;2661;50.786;12.728;2022-08-03T15:13:10;28.00;1.00
5276;DHT22;2661;50.786;12.728;2022-08-03T15:15:36;28.10;1.00
5276;DHT22;2661;50.786;12.728;2022-08-03T15:18:03;28.10;1.00
5276;DHT22;2661;50.786;12.728;2022-08-03T15:20:30;28.20;1.00
5276;DHT22;2661;50.786;12.728;2022-08-03T15:23:10;28.30;1.00
5276;DHT22;2661;50.786;12.728;2022-08-03T15:25:37;28.50;1.00
5276;DHT22;2661;50.786;12.728;2022-08-03T15:28:23;28.60;1.00
5276;DHT22;2661;50.786;12.728;2022-08-03T15:30:51;28.70;1.00
5276;DHT22;2661;50.786;12.728;2022-08-03T15:33:17;28.70;1.00
5276;DHT22;2661;50.786;12.728;2022-08-03T15:35:44;28.70;1.00
5276;DHT22;2661;50.786;12.728;2022-08-03T15:38:13;28.60;1.00
5276;DHT22;2661;50.786;12.728;2022-08-03T15:40:39;28.60;1.00
5276;DHT22;2661;50.786;12.728;2022-08-03T15:43:06;28.80;1.00
5276;DHT22;2661;50.786;12.728;2022-08-03T15:45:33;28.90;1.00
5276;DHT22;2661;50.786;12.728;2022-08-03T15:48:02;29.00;1.00
5276;DHT22;2661;50.786;12.728;2022-08-03T15:50:28;29.10;1.00
5276;DHT22;2661;50.786;12.728;2022-08-03T15:52:55;29.20;1.00
5276;DHT22;2661;50.786;12.728;2022-08-03T15:55:22;29.30;1.00
5276;DHT22;2661;50.786;12.728;2022-08-03T15:57:48;29.40;1.00
5276;DHT22;2661;50.786;12.728;2022-08-03T16:00:35;29.50;1.00
5276;DHT22;2661;50.786;12.728;2022-08-03T16:03:02;29.40;1.00
5276;DHT22;2661;50.786;12.728;2022-08-03T16:05:29;29.40;1.00
5276;DHT22;2661;50.786;12.728;2022-08-03T16:07:56;29.40;1.00
5276;DHT22;2661;50.786;12.728;2022-08-03T16:10:29;29.40;1.00
5276;DHT22;2661;50.786;12.728;2022-08-03T16:12:56;29.50;1.00
5276;DHT22;2661;50.786;12.728;2022-08-03T16:15:26;29.60;1.00
5276;DHT22;2661;50.786;12.728;2022-08-03T16:17:53;29.70;1.00
5276;DHT22;2661;50.786;12.728;2022-08-03T16:20:20;29.70;1.00
5276;DHT22;2661;50.786;12.728;2022-08-03T16:23:01;29.50;1.00
5276;DHT22;2661;50.786;12.728;2022-08-03T16:25:38;29.30;1.00
5276;DHT22;2661;50.786;12.728;2022-08-03T16:28:05;29.20;1.00
5276;DHT22;2661;50.786;12.728;2022-08-03T16:30:39;29.40;1.00
5276;DHT22;2661;50.786;12.728;2022-08-03T16:33:06;29.50;1.00
5276;DHT22;2661;50.786;12.728;2022-08-03T16:35:33;29.40;1.00
5276;DHT22;2661;50.786;12.728;2022-08-03T16:37:59;29.30;1.00
5276;DHT22;2661;50.786;12.728;2022-08-03T16:40:28;29.30;1.00
5276;DHT22;2661;50.786;12.728;2022-08-03T16:42:55;29.30;1.00
5276;DHT22;2661;50.786;12.728;2022-08-03T16:45:22;29.30;1.00